Ana Sayfa
METAR-TAF:

METAR-TAF

Havaalanları :

Tennant Creek, Avustralya

Enlem: 19-38-04S, Boylam: 134-11-00E, yükseklik: 377 m

Güncel hava durumu gözlemi

Rapor saat 06:00 UTC de 59 dakika önce yapıldı.
Rüzgar doğu/güneydoğudan 15 kt
Sıcaklık 25°C
Nem 14%
Basınç 1020 hPa
Görüş mesafesi 10 km veya daha fazla

METAR: YTNK 240600Z AUTO 12015KT 9999 // NCD 25/M04 Q1020

Saat: 16:29 (06:59 UTC)

Tahmin

Rapor saat 01:22 UTC de 5 saat ve 37 dakika önce yapıldı.
Ayın 24'si saat 02 UTC'den ayın 24'si saat 14 UTC'ye kadar geçerli Tahmin
Rüzgar doğu/güneydoğudan 15 kt ve 25 kt'a kadar ani rüzgarlar
Görüş mesafesi 10 km veya daha fazla
1500 m altında bulut yok ve kümülonimbus yok
Ayın 24'si saat 0400 UTC'den
Rüzgar doğu/güneydoğudan 14 kt
Görüş mesafesi 10 km veya daha fazla
1500 m altında bulut yok ve kümülonimbus yok

TAF: YTNK 240122Z 2402/2414 12015G25KT CAVOK FM240400 12014KT CAVOK

4.000'den fazla havaalanı için hava durumu gözlemleri ve tahminleri (METAR ve TAF raporları).

Kullanılabilir istasyonlar harita üzerinde sarı ve kırmızı noktalarla gösterilir.

İstasyonun adını görmek için fareyi noktanın üzerinde gezdirin.

Sonrasında hava gözlem ve tahminlerini görmek için tıklayın.

Haritayı değiştirmek için: yaklaştırmak için siyah artı işaretli yeşil düğmeye ve uzaklaştırmak için de eksi işaretli düğmeye hızla tıklayın; bitişik haritalar için yeşil okları kullanın.


METAR-TAF: